D/T METAR WX W/SPE G/SPE TEMP DEWP FEEL
20/09/20 11:00 EIKY 201000Z VRB02KT 9999 SCT008 13/11 Q1022 2.3mph 13°C 11°C 14.8°C
20/09/20 10:30 EIKY 200930Z 12004KT 9999 FEW007 12/11 Q1022 4.6mph 12°C 11°C 13.8°C
20/09/20 10:00 EIKY 200900Z VRB02KT 9999 FEW005 11/10 Q1022 2.3mph 11°C 10°C 12.3°C
20/09/20 09:30 EIKY 200830Z VRB01KT 9999 FEW006 09/09 Q1022 1.2mph 9°C 9°C 9.8°C
20/09/20 09:00 EIKY 200800Z VRB02KT CAVOK 08/08 Q1022 2.3mph 8°C 8°C 8.4°C
20/09/20 08:30 EIKY 200730Z 10002KT CAVOK 06/06 Q1021 2.3mph 6°C 6°C 5.6°C
19/09/20 20:00 EIKY 191900Z 05003KT 020V080 9999 BKN034 15/12 Q1020 3.5mph 15°C 12°C 17.3°C
19/09/20 19:30 EIKY 191830Z 05003KT 020V080 9999 BKN032 16/12 Q1020 3.5mph 16°C 12°C 18.3°C
19/09/20 19:00 EIKY 191800Z 06004KT 9999 BKN030 17/12 Q1020 4.6mph 17°C 12°C 19.3°C
19/09/20 18:30 EIKY 191730Z 06006KT 020V090 9999 BKN030 18/13 Q1019 6.9mph 18°C 13°C 20.8°C
19/09/20 18:00 EIKY 191700Z VRB04KT 9999 FEW032 18/13 Q1019 4.6mph 18°C 13°C 20.8°C
19/09/20 17:30 EIKY 191630Z 04005KT 350V090 9999 FEW033 18/12 Q1019 5.8mph 18°C 12°C 20.3°C
19/09/20 17:00 EIKY 191600Z 05005KT 010V080 9999 FEW033 18/12 Q1019 5.8mph 18°C 12°C 20.3°C
19/09/20 16:30 EIKY 191530Z 03004KT 330V090 CAVOK 19/13 Q1019 4.6mph 19°C 13°C 21.8°C
19/09/20 16:00 EIKY 191500Z VRB04KT CAVOK 19/12 Q1019 4.6mph 19°C 12°C 21.3°C
19/09/20 15:30 EIKY 191430Z VRB03KT CAVOK 19/12 Q1019 3.5mph 19°C 12°C 21.3°C
19/09/20 15:00 EIKY 191400Z 04004KT 300V090 9999 FEW029 19/12 Q1019 4.6mph 19°C 12°C 21.3°C
19/09/20 14:30 EIKY 191330Z VRB03KT 9999 FEW028 18/12 Q1019 3.5mph 18°C 12°C 20.3°C
19/09/20 14:00 EIKY 191300Z VRB03KT 9999 FEW026 18/11 Q1020 3.5mph 18°C 11°C 19.8°C
19/09/20 13:30 EIKY 191230Z 10003KT 040V180 9999 FEW026 17/11 Q1020 3.5mph 17°C 11°C 18.8°C
19/09/20 13:00 EIKY 191200Z VRB03KT 9999 FEW025 17/11 Q1020 3.5mph 17°C 11°C 18.8°C
19/09/20 12:30 EIKY 191130Z 06003KT 010V100 9999 FEW022 15/11 Q1020 3.5mph 15°C 11°C 16.8°C
19/09/20 12:00 EIKY 191100Z 06003KT 010V120 CAVOK 15/11 Q1020 3.5mph 15°C 11°C 16.8°C
19/09/20 11:30 EIKY 191030Z 04003KT 350V100 CAVOK 14/11 Q1020 3.5mph 14°C 11°C 15.8°C
19/09/20 11:00 EIKY 191000Z 00000KT CAVOK 12/11 Q1020 12°C 11°C 13.8°C
19/09/20 10:30 EIKY 190930Z VRB02KT CAVOK 11/10 Q1020 2.3mph 11°C 10°C 12.3°C
19/09/20 10:00 EIKY 190900Z VRB02KT CAVOK 10/10 Q1020 2.3mph 10°C 10°C 11.3°C
19/09/20 09:30 EIKY 190830Z VRB01KT CAVOK 10/09 Q1020 1.2mph 10°C 9°C 10.8°C
19/09/20 08:30 EIKY 190730Z 00000KT CAVOK 07/07 Q1020 7°C 7°C 7.0°C
19/09/20 08:00 EIKY 190700Z 00000KT 9000 NSC 06/06 Q1020 6°C 6°C 5.6°C
19/09/20 07:30 EIKY 190630Z 00000KT 7000 NSC 06/06 Q1020 6°C 6°C 5.6°C
19/09/20 07:00 EIKY 190600Z VRB02KT 9000 NSC 06/05 Q1020 2.3mph 6°C 5°C 5.3°C
18/09/20 19:30 EIKY 181830Z 05006KT 010V090 CAVOK 16/11 Q1020 6.9mph 16°C 11°C 17.8°C
18/09/20 19:00 EIKY 181800Z 04004KT 360V080 CAVOK 18/11 Q1020 4.6mph 18°C 11°C 19.8°C
18/09/20 18:30 EIKY 181730Z 06006KT 020V090 CAVOK 19/10 Q1020 6.9mph 19°C 10°C 20.3°C
18/09/20 18:00 EIKY 181700Z 05006KT 010V090 CAVOK 19/09 Q1020 6.9mph 19°C 9°C 19.8°C
18/09/20 17:30 EIKY 181630Z 05007KT 010V090 CAVOK 20/10 Q1020 8.1mph 20°C 10°C 21.3°C
18/09/20 17:00 EIKY 181600Z 07007KT 030V090 CAVOK 20/11 Q1020 8.1mph 20°C 11°C 21.8°C
18/09/20 16:30 EIKY 181530Z 06007KT 360V090 CAVOK 21/12 Q1020 8.1mph 21°C 12°C 23.3°C
18/09/20 16:00 EIKY 181500Z 05008KT 350V090 CAVOK 21/11 Q1021 9.2mph 21°C 11°C 22.8°C
18/09/20 15:30 EIKY 181430Z 06009KT 360V100 CAVOK 21/11 Q1021 10.4mph 21°C 11°C 22.8°C
18/09/20 14:30 EIKY 181330Z 06009KT 030V090 CAVOK 20/12 Q1021 10.4mph 20°C 12°C 22.3°C
18/09/20 14:00 EIKY 181300Z 07009KT 030V090 CAVOK 20/12 Q1022 10.4mph 20°C 12°C 22.3°C
18/09/20 13:30 EIKY 181230Z 09008KT 040V110 CAVOK 20/13 Q1022 9.2mph 20°C 13°C 22.8°C
18/09/20 13:00 EIKY 181200Z 11008KT CAVOK 20/13 Q1022 9.2mph 20°C 13°C 22.8°C
18/09/20 12:30 EIKY 181130Z 11007KT CAVOK 20/14 Q1022 8.1mph 20°C 14°C 23.4°C
18/09/20 12:00 EIKY 181100Z VRB05KT CAVOK 19/13 Q1023 5.8mph 19°C 13°C 21.8°C
18/09/20 11:30 EIKY 181030Z VRB02KT CAVOK 18/14 Q1023 2.3mph 18°C 14°C 21.4°C
18/09/20 11:00 EIKY 181000Z VRB02KT CAVOK 17/12 Q1023 2.3mph 17°C 12°C 19.3°C
18/09/20 10:00 EIKY 180900Z VRB02KT CAVOK 14/11 Q1023 2.3mph 14°C 11°C 15.8°C
18/09/20 09:30 EIKY 180830Z VRB02KT CAVOK 13/12 Q1023 2.3mph 13°C 12°C 15.3°C
18/09/20 09:00 EIKY 180800Z 00000KT CAVOK 12/11 Q1023 12°C 11°C 13.8°C
18/09/20 08:30 EIKY 180730Z 22002KT CAVOK 10/10 Q1023 2.3mph 10°C 10°C 11.3°C
18/09/20 08:00 EIKY 180700Z VRB01KT 9000 NSC 09/08 Q1023 1.2mph 9°C 8°C 9.4°C
18/09/20 07:30 EIKY 180630Z VRB01KT CAVOK 09/08 Q1023 1.2mph 9°C 8°C 9.4°C
18/09/20 07:00 EIKY 180600Z VRB02KT CAVOK 09/09 Q1023 2.3mph 9°C 9°C 9.8°C
17/09/20 19:30 EIKY 171830Z 10004KT CAVOK 17/14 Q1024 4.6mph 17°C 14°C 20.4°C
17/09/20 19:00 EIKY 171800Z 09007KT CAVOK 19/14 Q1025 8.1mph 19°C 14°C 22.4°C
17/09/20 18:30 EIKY 171730Z 10006KT 070V130 CAVOK 20/16 Q1024 6.9mph 20°C 16°C 24.6°C
17/09/20 18:00 EIKY 171700Z 11007KT CAVOK 20/16 Q1024 8.1mph 20°C 16°C 24.6°C
17/09/20 17:30 EIKY 171630Z 11006KT CAVOK 21/16 Q1025 6.9mph 21°C 16°C 25.6°C
17/09/20 17:00 EIKY 171600Z 12009KT CAVOK 20/15 Q1025 10.4mph 20°C 15°C 24.0°C
17/09/20 16:30 EIKY 171530Z 11010KT CAVOK 20/15 Q1025 11.5mph 20°C 15°C 24.0°C
17/09/20 16:00 EIKY 171500Z 12011KT CAVOK 20/15 Q1025 12.7mph 20°C 15°C 24.0°C
17/09/20 15:30 EIKY 171430Z 12009KT 090V150 9999 FEW016 20/16 Q1026 10.4mph 20°C 16°C 24.6°C
17/09/20 15:00 EIKY 171400Z 13010KT 090V160 9999 OVC015 19/16 Q1026 11.5mph 19°C 16°C 23.6°C
17/09/20 14:30 EIKY 171330Z 11011KT 9999 OVC013 18/15 Q1026 12.7mph 18°C 15°C 22.0°C
17/09/20 14:00 EIKY 171300Z 11009KT 9999 OVC013 18/15 Q1026 10.4mph 18°C 15°C 22.0°C
17/09/20 13:30 EIKY 171230Z 12009KT 080V140 9999 BKN016 18/16 Q1026 10.4mph 18°C 16°C 22.6°C
17/09/20 13:00 EIKY 171200Z 11008KT 080V150 9999 BKN015 17/16 Q1026 9.2mph 17°C 16°C 21.6°C
17/09/20 12:30 EIKY 171130Z 12008KT 9999 BKN017 18/16 Q1026 9.2mph 18°C 16°C 22.6°C
17/09/20 11:30 EIKY 171030Z 13009KT 9999 BKN015 18/16 Q1027 10.4mph 18°C 16°C 22.6°C
17/09/20 11:00 EIKY 171000Z 11008KT 080V140 9999 BKN010 17/16 Q1027 9.2mph 17°C 16°C 21.6°C
17/09/20 10:30 EIKY 170930Z 11006KT 080V140 8000 BKN010 17/16 Q1026 6.9mph 17°C 16°C 21.6°C
17/09/20 10:00 EIKY 170900Z 11007KT 7000 OVC010 17/16 Q1026 8.1mph 17°C 16°C 21.6°C
17/09/20 09:30 EIKY 170830Z 09004KT 010V150 6000 OVC009 16/16 Q1026 4.6mph 16°C 16°C 20.6°C
17/09/20 09:00 EIKY 170800Z 11006KT 080V140 6000 OVC007 16/16 Q1026 6.9mph 16°C 16°C 20.6°C
17/09/20 08:30 EIKY 170730Z 09005KT 6000 OVC008 16/15 Q1026 5.8mph 16°C 15°C 20.0°C
17/09/20 08:00 EIKY 170700Z 10006KT 6000 OVC008 16/15 Q1026 6.9mph 16°C 15°C 20.0°C
17/09/20 07:30 EIKY 170630Z 10004KT 6000 OVC010 16/16 Q1026 4.6mph 16°C 16°C 20.6°C
17/09/20 07:00 EIKY 170600Z 00000KT 7000 OVC010 15/15 Q1026 15°C 15°C 19.0°C
16/09/20 20:30 EIKY 161930Z 00000KT CAVOK 17/16 Q1026 17°C 16°C 21.6°C
16/09/20 20:00 EIKY 161900Z VRB01KT 9999 FEW027 18/17 Q1026 1.2mph 18°C 17°C 23.3°C
16/09/20 19:30 EIKY 161830Z VRB02KT 9999 SCT027 BKN031 19/17 Q1026 2.3mph 19°C 17°C 24.3°C
16/09/20 19:00 EIKY 161800Z 27004KT 240V300 9999 SCT032 19/17 Q1026 4.6mph 19°C 17°C 24.3°C
16/09/20 18:30 EIKY 161730Z 24004KT 200V320 CAVOK 21/17 Q1025 4.6mph 21°C 17°C 26.3°C
16/09/20 18:00 EIKY 161700Z 17003KT 120V200 CAVOK 22/18 Q1025 3.5mph 22°C 18°C 28.0°C
16/09/20 17:30 EIKY 161630Z VRB02KT 9999 SCT026 22/18 Q1025 2.3mph 22°C 18°C 28.0°C
16/09/20 17:00 EIKY 161600Z 18003KT 140V210 9999 SCT022 22/17 Q1025 3.5mph 22°C 17°C 27.3°C
16/09/20 16:30 EIKY 161530Z 15004KT 8000 FEW024 SCT038 22/17 Q1025 4.6mph 22°C 17°C 27.3°C
16/09/20 16:00 EIKY 161500Z 21004KT 180V240 9999 FEW029 22/18 Q1025 4.6mph 22°C 18°C 28.0°C
16/09/20 15:30 EIKY 161430Z 11003KT 070V140 9999 SCT032 23/16 Q1025 3.5mph 23°C 16°C 27.6°C
16/09/20 15:00 EIKY 161400Z 11003KT 070V160 CAVOK 22/18 Q1025 3.5mph 22°C 18°C 28.0°C
16/09/20 14:30 EIKY 161330Z 16003KT 130V250 9999 SCT032 22/17 Q1025 3.5mph 22°C 17°C 27.3°C
16/09/20 14:00 EIKY 161300Z 13004KT 070V180 9999 FEW019 22/18 Q1025 4.6mph 22°C 18°C 28.0°C
16/09/20 13:30 EIKY 161230Z VRB02KT 9999 FEW019 22/17 Q1025 2.3mph 22°C 17°C 27.3°C